Latest Weather Observations for Dunalley

IDT60801

Issued at 11:02 am EDT Saturday 19 January 2019 (issued every 10 minutes, with the page automatically refreshed every 10 minutes)

About weather observations | Map of weather stations | Latest weather observations for TAS | Other Formats
Station Details ID: 094254 Name: DUNALLEY (STROUD POINT) Lat: -42.90 Lon: 147.79 Height: 12.43 m
Data from the previous 72 hours. | See also: Recent months at Dunalley
Date/Time
EDT
Temp
°C
App
Temp
°C
Dew
Point
°C
Rel
Hum
%
Delta-T
°C
Wind Press
QNH
hPa
Press
MSL
hPa
Rain since
9am
mm
Dir  Spd
km/h
Gust
km/h
Spd
kts
Gust
kts
19/11:00am 18.9 13.7 7.4 47 5.8 WSW 24 32 13 17 1014.5 1014.5 0.0
19/10:30am 18.9 11.7 6.1 43 6.3 W 33 44 18 24 1014.4 1014.4 0.0
19/10:00am 18.9 13.1 6.4 44 6.2 WSW 26 37 14 20 1014.4 1014.4 0.0
19/09:30am 17.7 10.9 5.3 44 6.0 W 30 33 16 18 1014.5 1014.5 0.0
19/09:00am 17.4 11.4 5.4 45 5.8 W 26 39 14 21 1014.1 1014.1 2.6
19/08:30am 15.9 10.3 5.2 49 5.1 WNW 24 32 13 17 1013.9 1013.9 2.6
19/08:00am 15.3 10.6 5.2 51 4.8 WNW 19 30 10 16 1013.5 1013.5 2.6
19/07:30am 15.8 10.3 5.7 51 4.8 W 24 32 13 17 1013.2 1013.2 2.6
19/07:00am 15.6 6.7 7.6 59 4.0 WSW 44 54 24 29 1012.4 1012.4 2.6
19/06:30am 15.1 7.7 6.9 58 4.0 W 35 43 19 23 1012.1 1012.1 2.6
19/06:00am 15.3 7.6 7.1 58 4.0 WSW 37 48 20 26 1011.5 1011.5 2.6
19/05:30am 15.3 8.1 7.6 60 3.8 WSW 35 43 19 23 1010.9 1010.9 2.6
19/05:00am 15.1 7.7 6.9 58 4.0 W 35 46 19 25 1010.6 1010.6 2.6
19/04:30am 15.2 7.6 7.5 60 3.8 WSW 37 46 20 25 1010.2 1010.2 2.6
19/04:00am 15.2 6.6 8.2 63 3.5 WSW 43 50 23 27 1009.6 1009.6 2.6
19/03:30am 15.6 5.3 9.5 67 3.2 WSW 54 63 29 34 1008.7 1008.7 2.6
19/03:00am 15.6 5.9 9.1 65 3.3 WSW 50 61 27 33 1008.5 1008.5 2.6
19/02:30am 15.5 7.4 8.5 63 3.5 WSW 41 52 22 28 1008.8 1008.8 2.6
19/02:00am 16.0 5.6 7.7 58 4.2 WSW 52 65 28 35 1008.4 1008.4 2.6
19/01:30am 16.2 5.5 8.2 59 4.1 WSW 54 67 29 36 1007.7 1007.7 2.6
19/01:00am 16.3 5.1 7.5 56 4.4 WSW 56 67 30 36 1006.6 1006.6 2.6
19/12:30am 16.4 5.3 8.9 61 3.9 WSW 57 69 31 37 1006.4 1006.4 2.6
19/12:00am 16.8 6.7 8.8 59 4.1 WSW 52 61 28 33 1006.1 1006.1 2.6
 
Date/Time
EDT
Temp
°C
App
Temp
°C
Dew
Point
°C
Rel
Hum
%
Delta-T
°C
Wind Press
QNH
hPa
Press
MSL
hPa
Rain since
9am
mm
Dir  Spd
km/h
Gust
km/h
Spd
kts
Gust
kts
18/11:30pm 16.8 4.9 8.5 58 4.2 WSW 61 82 33 44 1005.5 1005.5 2.6
18/11:05pm 17.3 5.8 10.2 63 3.8 WSW 61 83 33 45 1004.9 1004.9 2.6
18/11:00pm 17.2 6.3 10.8 66 3.4 WSW 59 72 32 39 1004.9 1004.9 2.6
18/10:30pm 17.5 6.9 12.0 70 3.0 WSW 59 72 32 39 1005.1 1005.1 2.6
18/10:22pm 17.7 7.6 12.4 71 2.9 WSW 57 72 31 39 1004.8 1004.8 2.6
18/10:00pm 16.9 12.0 14.4 85 1.4 W 33 54 18 29 1004.9 1004.9 2.6
18/09:57pm 16.9 13.5 14.7 87 1.3 W 26 48 14 26 1004.7 1004.7 2.6
18/09:47pm 17.5 16.5 14.6 83 1.7 NNE 13 35 7 19 1004.4 1004.4 1.4
18/09:30pm 17.1 17.4 13.4 79 2.1 NNE 4 7 2 4 1003.4 1003.4 0.0
18/09:00pm 17.2 16.5 13.3 78 2.2 NNE 9 13 5 7 1002.8 1002.8 0.0
18/08:30pm 17.2 15.3 13.1 77 2.3 NNE 15 19 8 10 1002.7 1002.7 0.0
18/08:00pm 17.5 16.1 13.4 77 2.3 NE 13 19 7 10 1002.8 1002.8 0.0
18/07:30pm 17.6 15.9 13.7 78 2.2 NE 15 20 8 11 1002.8 1002.8 0.0
18/07:00pm 17.5 15.4 13.6 78 2.2 NE 17 22 9 12 1002.7 1002.7 0.0
18/06:30pm 17.5 15.5 13.8 79 2.1 NE 17 20 9 11 1002.8 1002.8 0.0
18/06:00pm 17.7 15.2 13.4 76 2.4 ENE 19 24 10 13 1003.1 1003.1 0.0
18/05:30pm 17.5 16.3 14.0 80 2.0 ENE 13 19 7 10 1003.0 1003.0 0.0
18/05:00pm 17.6 15.5 13.5 77 2.3 E 17 24 9 13 1003.3 1003.3 0.0
18/04:30pm 18.9 17.2 13.7 72 3.0 E 15 19 8 10 1003.5 1003.5 0.0
18/04:00pm 19.1 16.5 13.7 71 3.1 E 20 24 11 13 1003.1 1003.1 0.0
18/03:30pm 20.4 17.1 14.1 67 3.6 ENE 24 33 13 18 1003.1 1003.1 0.0
18/03:00pm 20.9 17.1 14.8 68 3.6 NE 28 33 15 18 1003.5 1003.5 0.0
18/02:30pm 20.5 16.6 14.4 68 3.6 ENE 28 33 15 18 1003.8 1003.8 0.0
18/02:00pm 21.5 17.6 14.4 64 4.2 NE 28 35 15 19 1004.0 1004.0 0.0
18/01:30pm 22.8 19.1 15.1 62 4.6 NE 28 35 15 19 1004.2 1004.2 0.0
18/01:00pm 21.9 17.4 14.8 64 4.2 NE 32 39 17 21 1004.8 1004.8 0.0
18/12:54pm 22.3 18.5 14.7 62 4.5 NE 28 35 15 19 1004.8 1004.8 0.0
18/12:30pm 22.2 22.2 14.3 61 4.6 S 7 9 4 5 1005.3 1005.3 0.0
18/12:00pm 21.4 20.9 13.8 62 4.4 S 9 13 5 7 1005.8 1005.8 0.0
18/11:30am 21.1 20.6 13.8 63 4.2 S 9 11 5 6 1006.1 1006.1 0.0
18/11:00am 20.4 20.1 13.4 64 4.0 S 7 9 4 5 1006.1 1006.1 0.0
18/10:30am 20.2 20.4 14.6 70 3.3 SSW 7 13 4 7 1005.9 1005.9 0.0
18/10:00am 19.2 19.6 13.8 71 3.1 SSW 4 6 2 3 1006.3 1006.3 0.0
18/09:30am 18.7 18.8 14.0 74 2.7 S 6 7 3 4 1006.5 1006.5 0.0
18/09:00am 18.1 17.6 13.8 76 2.5 SSW 9 13 5 7 1006.5 1006.5 0.2
18/08:30am 17.8 16.2 13.9 78 2.2 SSW 15 19 8 10 1006.6 1006.6 0.2
18/08:00am 17.9 16.5 14.4 80 2.0 SSW 15 17 8 9 1006.3 1006.3 0.2
18/07:30am 17.7 16.9 14.0 79 2.1 SSE 11 15 6 8 1006.0 1006.0 0.2
18/07:00am 17.4 16.2 13.9 80 2.0 S 13 15 7 8 1005.8 1005.8 0.2
18/06:30am 17.3 17.2 14.0 81 1.9 SSE 7 9 4 5 1005.5 1005.5 0.2
18/06:00am 17.2 16.7 13.9 81 1.9 SSE 9 13 5 7 1005.2 1005.2 0.2
18/05:30am 17.3 16.1 14.0 81 1.9 SSE 13 17 7 9 1004.8 1004.8 0.2
18/05:00am 17.3 16.0 13.8 80 2.0 SSE 13 15 7 8 1004.9 1004.9 0.2
18/04:30am 17.3 16.4 13.8 80 2.0 SSE 11 15 6 8 1004.8 1004.8 0.2
18/04:00am 17.3 16.4 13.8 80 2.0 SSE 11 13 6 7 1004.5 1004.5 0.2
18/03:30am 17.2 17.1 13.9 81 1.9 SSE 7 11 4 6 1004.7 1004.7 0.2
18/03:00am 17.3 17.4 14.0 81 1.9 SSE 6 9 3 5 1004.8 1004.8 0.2
18/02:30am 17.5 17.5 14.2 81 1.9 S 7 13 4 7 1004.8 1004.8 0.2
18/02:00am 17.6 17.6 14.3 81 1.9 SSW 7 9 4 5 1005.0 1005.0 0.2
18/01:30am 17.7 18.0 14.4 81 1.9 SSW 6 9 3 5 1005.2 1005.2 0.2
18/01:00am 17.8 18.5 14.5 81 1.9 SSW 4 6 2 3 1005.5 1005.5 0.2
18/12:30am 17.9 18.3 14.8 82 1.8 SSW 6 9 3 5 1005.6 1005.6 0.2
18/12:00am 17.8 18.0 14.7 82 1.8 S 7 11 4 6 1005.9 1005.9 0.2
 
Date/Time
EDT
Temp
°C
App
Temp
°C
Dew
Point
°C
Rel
Hum
%
Delta-T
°C
Wind Press
QNH
hPa
Press
MSL
hPa
Rain since
9am
mm
Dir  Spd
km/h
Gust
km/h
Spd
kts
Gust
kts
17/11:30pm 17.8 17.6 14.7 82 1.8 SW 9 11 5 6 1005.9 1005.9 0.2
17/11:00pm 17.9 17.7 14.8 82 1.8 SW 9 9 5 5 1006.4 1006.4 0.2
17/10:30pm 18.1 18.0 15.0 82 1.8 SW 9 13 5 7 1006.7 1006.7 0.2
17/10:00pm 18.4 17.7 15.3 82 1.8 SW 13 17 7 9 1006.6 1006.6 0.2
17/09:30pm 18.6 17.9 15.5 82 1.8 SW 13 17 7 9 1006.5 1006.5 0.2
17/09:00pm 18.9 17.1 15.6 81 2.0 SW 19 22 10 12 1005.9 1005.9 0.2
17/08:30pm 20.0 19.2 16.0 78 2.4 SSW 15 20 8 11 1005.5 1005.5 0.2
17/08:00pm 21.6 21.2 16.1 71 3.3 SW 13 17 7 9 1005.5 1005.5 0.2
17/07:30pm 22.9 23.2 16.9 69 3.7 SSW 11 13 6 7 1005.2 1005.2 0.2
17/07:00pm 22.9 23.2 16.9 69 3.7 SSE 11 15 6 8 1004.6 1004.6 0.2
17/06:30pm 24.6 25.0 16.3 60 5.1 NE 9 15 5 8 1004.7 1004.7 0.2
17/06:00pm 25.2 24.5 16.4 58 5.4 ENE 15 19 8 10 1004.6 1004.6 0.2
17/05:30pm 23.6 21.6 16.4 64 4.4 NE 22 26 12 14 1004.6 1004.6 0.2
17/05:00pm 25.4 24.0 17.1 60 5.2 ENE 20 28 11 15 1004.6 1004.6 0.2
17/04:30pm 25.1 22.5 16.0 57 5.5 ENE 24 30 13 16 1004.8 1004.8 0.2
17/04:00pm 23.8 20.7 15.6 60 5.0 ENE 26 32 14 17 1005.1 1005.1 0.2
17/03:30pm 24.3 20.2 16.0 60 5.0 NE 32 39 17 21 1005.0 1005.0 0.2
17/03:00pm 24.5 21.6 16.2 60 5.1 ENE 26 33 14 18 1005.1 1005.1 0.2
17/02:30pm 24.1 20.7 15.9 60 5.0 NE 28 33 15 18 1005.5 1005.5 0.2
17/02:00pm 24.0 21.2 16.3 62 4.7 NE 26 32 14 17 1005.4 1005.4 0.0
17/01:30pm 22.8 21.0 15.4 63 4.4 ENE 19 24 10 13 1006.0 1006.0 0.0
17/01:00pm 21.7 19.6 15.3 67 3.8 ENE 20 24 11 13 1006.4 1006.4 0.0
17/12:30pm 21.4 19.5 15.3 68 3.6 NE 19 24 10 13 1006.8 1006.8 0.0
17/12:00pm 20.9 20.3 15.7 72 3.1 NE 13 17 7 9 1007.0 1007.0 0.0
17/11:30am 19.0 19.9 15.1 78 2.3 NW 4 6 2 3 1007.3 1007.3 0.0
17/11:00am 18.9 20.3 15.4 80 2.1 NW 2 4 1 2 1008.0 1008.0 0.0
17/10:30am 18.4 19.6 14.9 80 2.0 NW 2 4 1 2 1008.8 1008.8 0.0
17/10:00am 18.5 20.1 14.8 79 2.2 CALM 0 2 0 1 1009.1 1009.1 0.0
17/09:30am 18.2 19.0 14.7 80 2.0 NW 4 6 2 3 1009.3 1009.3 0.0
17/09:00am 18.1 19.6 14.6 80 2.0 CALM 0 0 0 0 1009.6 1009.6 0.0
17/08:30am 18.1 18.1 14.2 78 2.2 NW 7 9 4 5 1009.7 1009.7 0.0
17/08:00am 18.1 17.7 14.2 78 2.2 NW 9 11 5 6 1009.4 1009.4 0.0
17/07:30am 17.5 17.2 13.4 77 2.3 NW 7 11 4 6 1008.9 1008.9 0.0
17/07:00am 17.4 17.7 13.5 78 2.2 NW 4 9 2 5 1008.6 1008.6 0.0
17/06:30am 17.1 17.8 13.4 79 2.1 NW 2 4 1 2 1008.8 1008.8 0.0
17/06:00am 17.0 17.3 13.5 80 2.0 NW 4 7 2 4 1008.2 1008.2 0.0
17/05:30am 16.8 16.5 13.3 80 2.0 WNW 7 9 4 5 1007.8 1007.8 0.0
17/05:00am 17.2 16.6 13.5 79 2.1 WNW 9 11 5 6 1008.5 1008.5 0.0
17/04:30am 16.8 16.2 13.5 81 1.9 NNE 9 13 5 7 1008.5 1008.5 0.0
17/04:00am 16.8 17.1 13.5 81 1.9 NNE 4 6 2 3 1007.4 1007.4 0.0
17/03:30am 16.9 16.9 13.6 81 1.9 NNE 6 7 3 4 1007.9 1007.9 0.0
17/03:00am 16.7 16.5 13.6 82 1.8 NNE 7 7 4 4 1008.3 1008.3 0.0
17/02:30am 17.3 17.2 14.0 81 1.9 NNE 7 13 4 7 1008.7 1008.7 0.0
17/02:00am 17.6 15.4 14.3 81 1.9 NE 19 26 10 14 1008.2 1008.2 0.0
17/01:30am 17.9 15.4 14.2 79 2.1 NNE 20 28 11 15 1009.0 1009.0 0.0
17/01:00am 17.7 14.3 13.6 77 2.3 NE 24 32 13 17 1008.7 1008.7 0.0
17/12:30am 17.8 14.0 13.5 76 2.4 NE 26 32 14 17 1009.3 1009.3 0.0
17/12:00am 17.8 13.2 13.5 76 2.4 NE 30 46 16 25 1009.4 1009.4 0.0
 
Date/Time
EDT
Temp
°C
App
Temp
°C
Dew
Point
°C
Rel
Hum
%
Delta-T
°C
Wind Press
QNH
hPa
Press
MSL
hPa
Rain since
9am
mm
Dir  Spd
km/h
Gust
km/h
Spd
kts
Gust
kts
16/11:30pm 17.7 12.6 13.0 74 2.6 NE 32 41 17 22 1010.2 1010.2 0.0
16/11:00pm 17.6 13.6 12.9 74 2.6 NE 26 35 14 19 1010.4 1010.4 0.0
16/10:30pm 17.5 14.6 12.8 74 2.6 NE 20 28 11 15 1010.8 1010.8 0.0
16/10:00pm 17.3 14.1 13.0 76 2.4 ENE 22 32 12 17 1010.9 1010.9 0.0
16/09:30pm 17.0 13.7 12.9 77 2.3 ENE 22 28 12 15 1011.0 1011.0 0.0
16/09:00pm 17.1 13.9 13.0 77 2.3 ENE 22 30 12 16 1010.7 1010.7 0.0
16/08:30pm 17.0 11.7 12.5 75 2.5 NE 32 37 17 20 1011.0 1011.0 0.0
16/08:00pm 17.2 13.4 12.3 73 2.7 ENE 24 32 13 17 1011.7 1011.7 0.0
16/07:30pm 17.5 14.0 12.2 71 2.9 ENE 22 30 12 16 1012.3 1012.3 0.0
16/07:00pm 17.6 14.0 11.9 69 3.1 ENE 22 30 12 16 1011.8 1011.8 0.0
16/06:30pm 17.6 13.7 10.9 65 3.6 ENE 22 28 12 15 1011.9 1011.9 0.0
16/06:00pm 18.2 14.7 10.8 62 4.0 ENE 20 26 11 14 1011.9 1011.9 0.0
16/05:30pm 18.4 15.0 10.5 60 4.2 ENE 19 24 10 13 1011.9 1011.9 0.0
16/05:00pm 18.9 15.4 10.2 57 4.7 NE 19 28 10 15 1011.8 1011.8 0.0
16/04:30pm 19.4 15.1 10.9 58 4.6 NE 24 30 13 16 1011.5 1011.5 0.0
16/04:00pm 19.6 15.4 11.1 58 4.6 NE 24 33 13 18 1011.3 1011.3 0.0
16/03:30pm 20.1 16.3 11.1 56 4.9 NE 22 30 12 16 1011.2 1011.2 0.0
16/03:00pm 20.4 18.3 11.3 56 5.0 NE 13 19 7 10 1011.3 1011.3 0.0
16/02:30pm 20.5 19.8 11.4 56 5.0 ESE 6 15 3 8 1011.5 1011.5 0.0
16/02:00pm 21.6 19.8 11.0 51 5.8 SSE 11 13 6 7 1011.6 1011.6 0.0
16/01:30pm 21.0 19.0 11.6 55 5.2 S 13 17 7 9 1011.6 1011.6 0.0
16/01:00pm 19.7 17.6 11.2 58 4.7 S 13 17 7 9 1011.7 1011.7 0.0
16/12:30pm 19.9 18.7 11.7 59 4.5 S 9 15 5 8 1011.8 1011.8 0.0
16/12:00pm 19.8 17.5 11.6 59 4.5 SSE 15 19 8 10 1011.7 1011.7 0.0
16/11:30am 19.3 16.4 11.1 59 4.5 S 17 20 9 11 1011.6 1011.6 0.0

Other Formats:

Comma delimited format used in spreadsheet applications
http://www.bom.gov.au/fwo/IDT60801/IDT60801.94951.axf

JavaScript Object Notation format (JSON) in row-major order
http://www.bom.gov.au/fwo/IDT60801/IDT60801.94951.json